Tiempo atmosférico en la estación meteorológica de Ocaña, Toledo (733 m.)



Fecha
DESCASC
Temp. máxima en grados centígrados (hora)
DESCASC
Temp. mínima en grados centígrados (hora)
DESCASC
Temp. media en grados centígrados
DESCASC
Racha de viento máxima en m/sg (hora)
DESCASC
Velocidad máxima media en intervalos de 10 minutos(hora)
DESCASC
Precipitaciones diarias en mm
DESCASC
Precipitaciones de 00:00 a 06:00 en mm
DESCASC
Precipitaciones de 06:00 a 12:00 en mm
DESCASC
Precipitaciones de 12:00 a 18:00 en mm
DESCASC
Precipitaciones de 18:00 a 24:00 en mm
DESCASC
18-04-2019 13.5 (00:00) 8.9 (21:00) 11.2 9.72 (01:30) 6.94 (13:40) 28.2 11.2 12 2 3
17-04-2019 24.1 (16:20) 8.6 (07:20) 16.4 15.28 (00:40) 8.89 (00:50) 0.6 0 0 0 0.6
16-04-2019 21.4 (18:20) 6.4 (00:00) 13.9 11.67 (23:40) 7.22 (23:59) 0 0 0 0 0
15-04-2019 24.2 (15:30) 10.3 (00:00) 17.3 16.11 (16:20) 10.56 (16:20) 0 0 0 0 0
14-04-2019 23 (17:40) 9.4 (00:00) 16.2 6.67 (16:00) 3.61 (15:20) 0 0 0 0 0
13-04-2019 20.7 (18:00) 3.7 (00:00) 12.2 6.11 (14:40) 3.06 (14:40) 0 0 0 0 0
12-04-2019 18 (17:20) 1.7 (00:00) 9.9 7.5 (18:20) 4.17 (18:30) 0 0 0 0 0
11-04-2019 15.6 (16:20) 1.9 (00:00) 8.8 9.44 (15:20) 6.11 (19:50) 0 0 0 0 0
10-04-2019 13.9 (16:00) 3.5 (00:00) 8.7 12.5 (16:20) 6.67 (16:30) 1 0 0 0 1
09-04-2019 12.5 (17:00) 4.2 (00:00) 8.3 14.44 (15:50) 7.78 (15:40) 0 0 0 0 0
08-04-2019 16.2 (17:20) 7.6 (00:00) 11.9 10.56 (17:20) 5.83 (15:00) 2.2 0 2.2 0 0
07-04-2019 11.7 (16:10) 4 (00:00) 7.8 10 (08:50) 5.28 (07:50) 0.4 0 0 0 0.4
06-04-2019 9.6 (16:40) 2.1 (00:00) 5.9 15.28 (13:50) 9.17 (17:20) 3 0.2 0.2 2.6 0
05-04-2019 8.9 (01:40) 3.4 (00:00) 6.1 12.78 (18:50) 8.61 (18:40) 8.2 0 2.2 5.6 0.4
04-04-2019 14.6 (18:40) 1.6 (00:00) 8.1 7.78 (14:40) 4.17 (04:10) 0 0 0 0 0
03-04-2019 17.1 (16:10) 5.7 (08:30) 11.4 11.67 (15:50) 7.5 (18:00) 0 0 0 0 0
02-04-2019 17.3 (16:00) 5.3 (00:00) 11.3 10.83 (16:30) 6.39 (16:00) 0.4 0 0 0.4 0
01-04-2019 15.9 (18:30) 7.7 (00:00) 11.8 5.28 (21:20) 3.89 (21:20) 0 0 0 0 0
31-03-2019 10.4 (00:00) 7 (00:00) 8.7 11.67 (01:20) 8.33 (03:10) 4.4 0 2.6 1.6 0.2
30-03-2019 18.5 (16:30) 1.8 (00:00) 10.1 11.11 (00:10) 7.5 (00:20) 0 0 0 0 0
29-03-2019 17.2 (15:10) 2.1 (00:00) 9.7 13.33 (16:10) 7.78 (23:20) 0 0 0 0 0
28-03-2019 18.5 (16:50) 1.6 (00:00) 10.1 7.78 (13:40) 5 (16:50) 0 0 0 0 0
27-03-2019 17.5 (16:50) 1.8 (00:00) 9.6 9.72 (01:40) 5.83 (01:20) 0 0 0 0 0
26-03-2019 21.2 (16:10) 3.1 (00:00) 12.2 11.11 (00:50) 7.78 (00:50) 0 0 0 0 0
25-03-2019 21.2 (15:20) 4 (00:00) 12.6 10.83 (23:20) 7.5 (23:40) 0 0 0 0 0
24-03-2019 20.7 (15:30) 7.7 (00:00) 14.2 15.83 (14:40) 6.94 (14:00) 0 0 0 0 0
23-03-2019 18.8 (14:40) 3 (00:00) 10.9 12.22 (14:30) 6.67 (14:30) 0 0 0 0 0
22-03-2019 17.2 (17:00) -0.7 (-00:0) 8.3 9.17 (14:00) 5.28 (14:20) 0 0 0 0 0
21-03-2019 15 (16:00) 0.3 (00:00) 7.7 8.89 (00:50) 5.28 (00:30) 0 0 0 0 0

Gráficas

Temp. máximas Temp. mínimas Temp. medias Precipitaciones Rachas de viento máximas Velocidades máximas media en intervalos de 10 minutos

Datos horarios

Fecha y hora oficial Temperatura (ºC) Velocidad del viento (km/h) Dirección del viento Racha (km/h) Dirección de racha Precipitación (mm) Presión (hPa) Tendencia (hPa) Humedad (%)
2019-04-19 23:00:00 7.9 8 Nordeste 12 Nordeste 0.2 -- -- 98
2019-04-19 22:00:00 7.9 7 Sudeste 11 Sudeste 1 -- -- 98
2019-04-19 21:00:00 8 8 Sudeste 13 Sudeste 1.8 -- -- 98
2019-04-19 20:00:00 8.1 6 Este 10 Sudeste 2 -- -- 97
2019-04-19 19:00:00 8.1 9 Este 13 Nordeste 2.2 -- -- 96
2019-04-19 18:00:00 8.3 12 Nordeste 18 Nordeste 1.8 -- -- 96
2019-04-19 17:00:00 8.8 15 Nordeste 27 Este 1.6 -- -- 96
2019-04-19 16:00:00 9.2 21 Nordeste 30 Este 1.2 -- -- 96
2019-04-19 15:00:00 9.3 21 Este 29 Nordeste 1.2 -- -- 96
2019-04-19 14:00:00 9.4 22 Nordeste 28 Nordeste 1 -- -- 95
2019-04-19 13:00:00 10.9 14 Este 20 Este 0 -- -- 86
2019-04-19 12:00:00 10.6 13 Sudeste 20 Este 0 -- -- 87
2019-04-19 11:00:00 10 14 Sudeste 22 Sudeste 0 -- -- 90
2019-04-19 10:00:00 9.6 13 Sudeste 22 Este -- -- -- 95
2019-04-19 09:00:00 8.8 12 Este 18 Este 0 -- -- 98
2019-04-19 08:00:00 8.4 10 Sudeste 15 Este 0 -- -- 98
2019-04-19 07:00:00 8.6 10 Sudeste 17 Sur 0 -- -- 98
2019-04-19 06:00:00 8.8 8 Sudeste 17 Sudeste 0 -- -- 98
2019-04-19 05:00:00 8.6 9 Sudeste 18 Sudeste 0 -- -- 97
2019-04-19 04:00:00 8.8 9 Sudeste 18 Sudeste 0 -- -- 97
2019-04-19 03:00:00 8.9 12 Sudeste 19 Sudeste 0 -- -- 97
2019-04-19 02:00:00 9.1 9 Sudeste 18 Sudeste 0 -- -- 97
2019-04-19 01:00:00 9.1 9 Sudeste 14 Sudeste 0 -- -- 98
2019-04-19 00:00:00 9 6 Este 13 Este 0 -- -- 98
2019-04-18 23:00:00 9 9 Nordeste 18 Nordeste 0 -- -- 98
2019-04-18 22:00:00 8.9 15 Nordeste 20 Este 0.8 -- -- 97
2019-04-18 21:00:00 8.9 11 Nordeste 20 Nordeste 2.2 -- -- 96
2019-04-18 20:00:00 10.1 10 Norte 15 Norte 0 -- -- 91
2019-04-18 19:00:00 10.2 11 Norte 15 Norte 0 -- -- 89
2019-04-18 18:00:00 10.3 12 Norte 15 Norte 0 -- -- 88
2019-04-18 17:00:00 10.8 8 Norte 12 Este 0 -- -- 88
2019-04-18 16:00:00 10.6 5 Este 18 Este 0.4 -- -- 85
2019-04-18 15:00:00 10.6 13 Este 19 Este 0.4 -- -- 86
2019-04-18 14:00:00 10 19 Este 32 Este 0.6 -- -- 90
2019-04-18 13:00:00 9.9 16 Este 23 Este 0.6 -- -- 90
2019-04-18 12:00:00 9.4 15 Este 23 Este 1.6 -- -- 94
2019-04-18 11:00:00 9.2 13 Este 22 Este 4 -- -- 98
2019-04-18 10:00:00 9.3 10 Este 15 Este 2.2 -- -- 98
2019-04-18 09:00:00 9.4 9 Nordeste 12 Este 1.6 -- -- 97
2019-04-18 08:00:00 9.5 2 Sudeste 7 Sur 1.8 -- -- 96
2019-04-18 07:00:00 9.5 5 Sur 10 Sur 0.8 -- -- 96
2019-04-18 06:00:00 9.6 6 Sur 17 Sudoeste 3.2 -- -- 95
2019-04-18 05:00:00 10 7 Oeste 31 Sudeste 4.2 -- -- 96
2019-04-18 04:00:00 10.4 13 Sudeste 26 Sudeste 1 -- -- 95
2019-04-18 03:00:00 10.8 17 Sudeste 31 Sudeste 1.2 -- -- 93
2019-04-18 02:00:00 11.4 16 Sudeste 35 Sudeste 0.8 -- -- 91
2019-04-18 01:00:00 12.1 16 Sudeste 29 Sudeste 0.8 -- -- 88
2019-04-18 00:00:00 13.5 14 Sudeste 27 Sudeste 0.6 -- -- 83
2019-04-17 23:00:00 14.9 17 Este 23 Este 0 -- -- 75
2019-04-17 22:00:00 17 3 Oeste 33 Sur 0 -- -- 56
2019-04-17 21:00:00 18 24 Sur 42 Sudeste 0 -- -- 57
2019-04-17 20:00:00 19.9 21 Sur 48 Sudeste 0 -- -- 46
2019-04-17 19:00:00 21.1 25 Sudeste 48 Sudeste 0 -- -- 41
2019-04-17 18:00:00 22.6 23 Sudeste 41 Sudeste 0 -- -- 36
2019-04-17 17:00:00 23.3 24 Sudeste 36 Sudeste 0 -- -- 35
2019-04-17 16:00:00 23.8 21 Sudeste 38 Sudeste 0 -- -- 36
2019-04-17 15:00:00 22.9 21 Sudeste 40 Sudeste 0 -- -- 38
2019-04-17 14:00:00 21.6 18 Sudeste 35 Sudeste 0 -- -- 42
2019-04-17 13:00:00 19.3 23 Sudeste 37 Sudeste 0 -- -- 48
2019-04-17 12:00:00 16.6 20 Sudeste 40 Sudeste 0 -- -- 57
2019-04-17 11:00:00 14.1 28 Sudeste 46 Sudeste 0 -- -- 65
2019-04-17 10:00:00 12.5 30 Sudeste 46 Sudeste 0 -- -- 72
2019-04-17 09:00:00 10.4 23 Sudeste 39 Sudeste 0 -- -- 82
2019-04-17 08:00:00 8.9 26 Sudeste 39 Sudeste 0 -- -- 88
2019-04-17 07:00:00 8.7 21 Sudeste 39 Sudeste 0 -- -- 88
2019-04-17 06:00:00 8.9 20 Sudeste 39 Sudeste 0 -- -- 86
2019-04-17 05:00:00 9.4 25 Sudeste 40 Sudeste 0 -- -- 83
2019-04-17 04:00:00 10.2 24 Sudeste 41 Sudeste 0 -- -- 79
2019-04-17 03:00:00 11 26 Sudeste 39 Sudeste 0 -- -- 78
2019-04-17 02:00:00 11.9 26 Sudeste 48 Sudeste 0 -- -- 75
2019-04-17 01:00:00 13 31 Sudeste 55 Sudeste 0 -- -- 71
2019-04-17 00:00:00 14.2 26 Sudeste 42 Este 0 -- -- 67
2019-04-16 23:00:00 15.1 17 Sudeste 40 Sudeste 0 -- -- 51
2019-04-16 22:00:00 15.3 10 Sudeste 14 Este 0 -- -- 37
2019-04-16 21:00:00 17.1 7 Sudeste 14 Sur 0 -- -- 33
2019-04-16 20:00:00 19.8 12 Sudeste 24 Sudeste 0 -- -- 29
2019-04-16 19:00:00 21.1 12 Sur 26 Sudeste 0 -- -- 27
2019-04-16 18:00:00 21.2 15 Sudeste 25 Sur 0 -- -- 28
2019-04-16 17:00:00 21.3 13 Sudeste 26 Sudeste 0 -- -- 31
2019-04-16 16:00:00 20.5 12 Sur 24 Sudeste 0 -- -- 31
2019-04-16 15:00:00 20.1 12 Sur 26 Sur 0 -- -- 35
2019-04-16 14:00:00 18.5 11 Sudeste 22 Sudeste 0 -- -- 38
2019-04-16 13:00:00 17.5 9 Sudeste 20 Sudeste 0 -- -- 44
2019-04-16 12:00:00 16.4 10 Sudeste 23 Este 0 -- -- 50
2019-04-16 11:00:00 15.2 10 Este 18 Este 0 -- -- 52
2019-04-16 10:00:00 13.2 8 Nordeste 12 Norte 0 -- -- 62
2019-04-16 09:00:00 9.6 3 Norte 7 Norte 0 -- -- 84
2019-04-16 08:00:00 7.1 4 Noroeste 6 Noroeste 0 -- -- 89
2019-04-16 07:00:00 6.6 4 Noroeste 8 Norte 0 -- -- 90
2019-04-16 06:00:00 6.7 2 Oeste 13 Oeste 0 -- -- 90
2019-04-16 05:00:00 7.9 9 Oeste 17 Oeste 0 -- -- 92
2019-04-16 04:00:00 8 11 Oeste 17 Oeste 0 -- -- 88
2019-04-16 03:00:00 8.6 8 Oeste 13 Oeste 0 -- -- 84
2019-04-16 02:00:00 9.3 4 Noroeste 21 Oeste 0 -- -- 86
2019-04-16 01:00:00 10.3 11 Oeste 21 Oeste 0 -- -- 82
2019-04-16 00:00:00 11.1 12 Oeste 29 Oeste 0 -- -- 74
2019-04-15 23:00:00 12.8 14 Oeste 32 Oeste 0 -- -- 64
2019-04-15 22:00:00 13.5 19 Oeste 46 Oeste 0 -- -- 65
2019-04-15 21:00:00 14.4 24 Oeste 55 Oeste 0 -- -- 62
2019-04-15 20:00:00 19.6 29 Oeste 56 Oeste 0 -- -- 43
2019-04-15 19:00:00 22 31 Oeste 51 Oeste 0 -- -- 31
2019-04-15 18:00:00 23.7 26 Oeste 47 Sudoeste 0 -- -- 31
2019-04-15 17:00:00 24 31 Sudoeste 58 Sudoeste 0 -- -- 30
2019-04-15 16:00:00 24 34 Sudoeste 55 Sudoeste 0 -- -- 31
2019-04-15 15:00:00 23.7 24 Sudoeste 47 Sudoeste 0 -- -- 35
2019-04-15 14:00:00 21.6 14 Sur 40 Sur 0 -- -- 48
2019-04-15 13:00:00 21.9 23 Sur 36 Sur 0 -- -- 49
2019-04-15 12:00:00 19.1 14 Sur 22 Sur 0 -- -- 62
2019-04-15 11:00:00 17.1 12 Sur 20 Sur 0 -- -- 67
2019-04-15 10:00:00 14.9 11 Sudeste 21 Sudeste 0 -- -- 75
2019-04-15 09:00:00 11.9 11 Sudeste 19 Sudeste 0 -- -- 84
2019-04-15 08:00:00 10.7 9 Sudeste 17 Este 0 -- -- 84
2019-04-15 07:00:00 10.6 9 Sudeste 15 Sudeste 0 -- -- 83
2019-04-15 06:00:00 11.2 7 Sudeste 13 Sudeste 0 -- -- 81
2019-04-15 05:00:00 11.3 8 Sudeste 13 Sudeste 0 -- -- 81
2019-04-15 04:00:00 11.1 4 Sudeste 6 Sudeste 0 -- -- 79
2019-04-15 03:00:00 12 3 Sudeste 5 Sudeste 0 -- -- 77
2019-04-15 02:00:00 13.4 4 Sudeste 6 Sudeste 0 -- -- 73
2019-04-15 01:00:00 13.9 4 Sur 7 Sudoeste 0 -- -- 71
2019-04-15 00:00:00 14.3 4 Sur 5 Sudoeste 0 -- -- 69
2019-04-14 23:00:00 16.1 4 Oeste 13 Noroeste 0 -- -- 64
2019-04-14 22:00:00 17 5 Noroeste 13 Oeste 0 -- -- 62
2019-04-14 21:00:00 18.9 6 Noroeste 19 Noroeste 0 -- -- 55
2019-04-14 20:00:00 21.2 11 Noroeste 23 Oeste 0 -- -- 45
2019-04-14 19:00:00 22.7 9 Oeste 22 Oeste 0 -- -- 42
2019-04-14 18:00:00 22.7 6 Oeste 22 Oeste 0 -- -- 42
2019-04-14 17:00:00 22.4 11 Sudoeste 24 Oeste 0 -- -- 42
2019-04-14 16:00:00 21.8 9 Oeste 24 Oeste 0 -- -- 45
2019-04-14 15:00:00 20.7 12 Oeste 22 Sudoeste 0 -- -- 48
2019-04-14 14:00:00 19.4 10 Oeste 19 Oeste 0 -- -- 53
2019-04-14 13:00:00 18.7 9 Oeste 18 Oeste 0 -- -- 56
2019-04-14 12:00:00 17.2 7 Oeste 18 Oeste 0 -- -- 62
2019-04-14 11:00:00 16.1 5 Oeste 13 Noroeste 0 -- -- 68
2019-04-14 10:00:00 13.7 8 Oeste 14 Oeste 0 -- -- 81
2019-04-14 09:00:00 12 6 Oeste 15 Oeste 0 -- -- 90
2019-04-14 08:00:00 9.9 5 Oeste 17 Oeste 0 -- -- 90
2019-04-14 07:00:00 10.5 9 Oeste 17 Oeste 0 -- -- 89
2019-04-14 06:00:00 10.7 8 Oeste 15 Oeste 0 -- -- 79
2019-04-14 05:00:00 11.5 4 Noroeste 22 Oeste 0 -- -- 73
2019-04-14 04:00:00 11.1 12 Oeste 21 Oeste 0 -- -- 67
2019-04-14 03:00:00 9.4 5 Oeste 12 Oeste 0 -- -- 60
2019-04-14 02:00:00 10.1 5 Oeste 13 Oeste 0 -- -- 51
2019-04-14 01:00:00 11 9 Sudoeste 14 Sudoeste 0 -- -- 41
2019-04-14 00:00:00 11.2 5 Oeste 8 Oeste 0 -- -- 39
2019-04-13 23:00:00 12.8 4 Oeste 15 Oeste 0 -- -- 31
2019-04-13 22:00:00 14.6 6 Oeste 15 Oeste 0 -- -- 25
2019-04-13 21:00:00 16.1 3 Oeste 12 Oeste 0 -- -- 24
2019-04-13 20:00:00 19 7 Oeste 19 Oeste 0 -- -- 18
2019-04-13 19:00:00 20.5 8 Oeste 16 Oeste 0 -- -- 16
2019-04-13 18:00:00 20.7 6 Oeste 20 Noroeste 0 -- -- 13
2019-04-13 17:00:00 20.2 10 Sudoeste 21 Oeste 0 -- -- 17
2019-04-13 16:00:00 19.5 7 Noroeste 19 Sudoeste 0 -- -- 20
2019-04-13 15:00:00 18.6 6 Noroeste 22 Sudoeste 0 -- -- 22
2019-04-13 14:00:00 17.7 6 Sudoeste 18 Sudoeste 0 -- -- 25
2019-04-13 13:00:00 16.9 10 Sudoeste 17 Oeste 0 -- -- 30
2019-04-13 12:00:00 15.8 4 Oeste 12 Sudoeste 0 -- -- 35
2019-04-13 11:00:00 15 4 Sudeste 8 Este 0 -- -- 36
2019-04-13 10:00:00 12.6 0 Calma 4 Oeste 0 -- -- 47
2019-04-13 09:00:00 7.9 0 Calma 4 Norte 0 -- -- 67
2019-04-13 08:00:00 4.1 2 Noroeste 7 Noroeste 0 -- -- 66
2019-04-13 07:00:00 5.5 5 Oeste 9 Oeste 0 -- -- 62
2019-04-13 06:00:00 4.9 5 Oeste 8 Oeste 0 -- -- 64
2019-04-13 05:00:00 5.4 7 Oeste 13 Oeste 0 -- -- 62
2019-04-13 04:00:00 4.6 5 Nordeste 8 Nordeste 0 -- -- 62
2019-04-13 03:00:00 7.3 5 Norte 7 Norte 0 -- -- 55
2019-04-13 02:00:00 8.1 4 Noroeste 9 Norte 0 -- -- 52
2019-04-13 01:00:00 8.6 6 Norte 14 Norte 0 -- -- 51
2019-04-13 00:00:00 10.8 10 Norte 21 Norte 0 -- -- 45
2019-04-12 23:00:00 11.7 13 Norte 21 Norte 0 -- -- 42
2019-04-12 22:00:00 12.6 5 Noroeste 15 Noroeste 0 -- -- 38
2019-04-12 21:00:00 13.5 2 Nordeste 9 Nordeste 0 -- -- 36
2019-04-12 20:00:00 16.3 4 Este 17 Nordeste 0 -- -- 29
2019-04-12 19:00:00 17.1 9 Norte 27 Noroeste 0 -- -- 28
2019-04-12 18:00:00 17.6 13 Norte 24 Noroeste 0 -- -- 31
2019-04-12 17:00:00 17.5 15 Norte 24 Norte 0 -- -- 33
2019-04-12 16:00:00 16.7 4 Noroeste 25 Oeste 0 -- -- 37
2019-04-12 15:00:00 15.2 10 Noroeste 22 Oeste 0 -- -- 41
2019-04-12 14:00:00 13.7 7 Noroeste 21 Norte 0 -- -- 43
2019-04-12 13:00:00 12.7 8 Noroeste 19 Norte 0 -- -- 46
2019-04-12 12:00:00 11.5 8 Norte 18 Norte 0 -- -- 52
2019-04-12 11:00:00 10 9 Norte 17 Norte 0 -- -- 57
2019-04-12 10:00:00 8.4 7 Norte 15 Norte 0 -- -- 64
2019-04-12 09:00:00 5.7 3 Norte 9 Noroeste 0 -- -- 80
2019-04-12 08:00:00 1.9 2 Sur 5 Noroeste 0 -- -- 86
2019-04-12 07:00:00 2.8 4 Noroeste 8 Noroeste 0 -- -- 81
2019-04-12 06:00:00 3.2 4 Noroeste 7 Nordeste 0 -- -- 83
2019-04-12 05:00:00 4.4 6 Nordeste 9 Nordeste 0 -- -- 78
2019-04-12 04:00:00 4.2 7 Nordeste 12 Nordeste 0 -- -- 78
2019-04-12 03:00:00 5.3 7 Nordeste 11 Nordeste 0 -- -- 72
2019-04-12 02:00:00 4.7 3 Nordeste 8 Nordeste 0 -- -- 69
2019-04-12 01:00:00 5.4 6 Nordeste 12 Nordeste 0 -- -- 64
2019-04-12 00:00:00 7.9 8 Norte 14 Nordeste 0 -- -- 56
2019-04-11 23:00:00 8.9 9 Norte 17 Norte 0 -- -- 52
2019-04-11 22:00:00 9.8 9 Norte 16 Nordeste 0 -- -- 49
2019-04-11 21:00:00 11.1 10 Nordeste 26 Nordeste 0 -- -- 44
2019-04-11 20:00:00 13.2 17 Norte 31 Norte 0 -- -- 38
2019-04-11 19:00:00 14.5 15 Norte 29 Norte 0 -- -- 36
2019-04-11 18:00:00 15.5 12 Noroeste 24 Norte 0 -- -- 35
2019-04-11 17:00:00 14.9 14 Norte 26 Norte 0 -- -- 39
2019-04-11 16:00:00 14.6 10 Norte 34 Noroeste 0 -- -- 42
2019-04-11 15:00:00 14.4 13 Norte 31 Noroeste 0 -- -- 43
2019-04-11 14:00:00 13.5 14 Norte 30 Norte 0 -- -- 46
2019-04-11 13:00:00 12.6 18 Norte 33 Nordeste 0 -- -- 49
2019-04-11 12:00:00 10.7 11 Nordeste 25 Norte 0 -- -- 60
2019-04-11 11:00:00 9.4 16 Nordeste 23 Nordeste 0 -- -- 66
2019-04-11 10:00:00 7.4 6 Norte 11 Norte 0 -- -- 77
2019-04-11 09:00:00 4.7 3 Norte 8 Noroeste 0 -- -- 88
2019-04-11 08:00:00 2.6 4 Norte 6 Norte 0 -- -- 93
2019-04-11 07:00:00 2.3 3 Norte 6 Norte 0 -- -- 91
2019-04-11 06:00:00 2.8 5 Noroeste 7 Noroeste 0 -- -- 92
2019-04-11 05:00:00 3.1 3 Oeste 9 Nordeste 0 -- -- 87
2019-04-11 04:00:00 4.7 10 Nordeste 13 Nordeste 0 -- -- 81
2019-04-11 03:00:00 5.3 8 Norte 13 Nordeste 0 -- -- 80
2019-04-11 02:00:00 4.8 8 Norte 12 Norte 0 -- -- 87
2019-04-11 01:00:00 5.2 5 Noroeste 10 Noroeste 0 -- -- 86
2019-04-11 00:00:00 5.6 5 Noroeste 11 Noroeste 0 -- -- 85
2019-04-10 23:00:00 6.3 6 Noroeste 15 Noroeste 0 -- -- 83
2019-04-10 22:00:00 7.7 9 Noroeste 21 Oeste 0 -- -- 78
2019-04-10 21:00:00 9.3 5 Noroeste 25 Oeste 0 -- -- 68
2019-04-10 20:00:00 10.2 17 Noroeste 37 Noroeste 0 -- -- 64
2019-04-10 19:00:00 10.8 18 Oeste 40 Oeste 1 -- -- 74
2019-04-10 18:00:00 13 21 Oeste 39 Oeste 0 -- -- 55
2019-04-10 17:00:00 13.2 22 Oeste 45 Noroeste 0 -- -- 53
2019-04-10 16:00:00 13.9 17 Noroeste 38 Oeste 0 -- -- 47
2019-04-10 15:00:00 12.6 20 Noroeste 37 Noroeste 0 -- -- 51
2019-04-10 14:00:00 11 19 Oeste 35 Oeste 0 -- -- 58
2019-04-10 13:00:00 11.4 13 Noroeste 35 Oeste 0 -- -- 56
2019-04-10 12:00:00 10.3 16 Noroeste 33 Oeste 0 -- -- 63
2019-04-10 11:00:00 8.4 15 Oeste 28 Oeste 0 -- -- 78
2019-04-10 10:00:00 6.5 16 Oeste 31 Oeste 0 -- -- 87
2019-04-10 09:00:00 5.2 5 Sudoeste 18 Oeste 0 -- -- 95
2019-04-10 08:00:00 3.6 6 Oeste 17 Oeste 0 -- -- 93
2019-04-10 07:00:00 4 10 Oeste 21 Oeste 0 -- -- 93
2019-04-10 06:00:00 4.4 9 Oeste 21 Oeste 0 -- -- 92
2019-04-10 05:00:00 4.6 4 Oeste 10 Noroeste 0 -- -- 92
2019-04-10 04:00:00 4.5 3 Noroeste 14 Oeste 0 -- -- 90
2019-04-10 03:00:00 5.1 5 Oeste 8 Oeste 0 -- -- 88
2019-04-10 02:00:00 5.9 4 Noroeste 10 Oeste 0 -- -- 85
2019-04-10 01:00:00 6.9 4 Noroeste 21 Noroeste 0 -- -- 81
2019-04-10 00:00:00 7.9 8 Oeste 15 Oeste 0 -- -- 76
2019-04-09 23:00:00 7.6 9 Oeste 20 Noroeste 0 -- -- 75
2019-04-09 22:00:00 8.4 12 Oeste 24 Oeste 0 -- -- 73
2019-04-09 21:00:00 9.3 14 Oeste 35 Oeste 0 -- -- 67
2019-04-09 20:00:00 10.7 18 Oeste 36 Oeste 0 -- -- 65
2019-04-09 19:00:00 11.1 18 Oeste 42 Oeste 0 -- -- 61
2019-04-09 18:00:00 10.6 23 Oeste 39 Oeste 0 -- -- 57
2019-04-09 17:00:00 12.5 22 Oeste 44 Oeste 0 -- -- 55
2019-04-09 16:00:00 11.6 27 Oeste 52 Oeste 0 -- -- 60
2019-04-09 15:00:00 10.7 24 Oeste 46 Oeste 0 -- -- 66
2019-04-09 14:00:00 10.4 23 Oeste 40 Oeste 0 -- -- 66
2019-04-09 13:00:00 10.4 19 Oeste 37 Oeste 0 -- -- 66
2019-04-09 12:00:00 9.5 22 Oeste 37 Oeste 0 -- -- 67
2019-04-09 11:00:00 8.9 17 Oeste 34 Sudoeste 0 -- -- 72
2019-04-09 10:00:00 7.8 15 Oeste 24 Oeste 0 -- -- 81
2019-04-09 09:00:00 5.7 5 Sudoeste 13 Sudoeste 0 -- -- 91
2019-04-09 08:00:00 4.3 6 Sudoeste 16 Sudoeste 0 -- -- 93
2019-04-09 07:00:00 4.7 6 Oeste 22 Oeste 0 -- -- 93
2019-04-09 06:00:00 5.3 14 Oeste 27 Oeste 0 -- -- 90
2019-04-09 05:00:00 6.3 13 Oeste 32 Oeste 0 -- -- 86
2019-04-09 04:00:00 6.5 11 Oeste 32 Oeste 0 -- -- 85
2019-04-09 03:00:00 6.6 9 Oeste 18 Oeste 0 -- -- 85
2019-04-09 02:00:00 6.7 7 Oeste 16 Oeste 0 -- -- 81
2019-04-09 01:00:00 7.5 4 Noroeste 14 Noroeste 0 -- -- 74
2019-04-09 00:00:00 8.7 8 Noroeste 26 Oeste 0 -- -- 71
2019-04-08 23:00:00 9.5 16 Oeste 30 Oeste 0 -- -- 61
2019-04-08 22:00:00 10.5 9 Oeste 18 Oeste 0 -- -- 62
2019-04-08 21:00:00 11.5 8 Oeste 28 Sudoeste 0 -- -- 56
2019-04-08 20:00:00 13.8 18 Oeste 37 Oeste 0 -- -- 49
2019-04-08 19:00:00 14.8 17 Oeste 37 Oeste 0 -- -- 47
2019-04-08 18:00:00 15.6 17 Oeste 38 Oeste 0 -- -- 47
2019-04-08 17:00:00 15.9 17 Oeste 37 Oeste 0 -- -- 53
2019-04-08 16:00:00 15.3 19 Oeste 37 Oeste 0 -- -- 56
2019-04-08 15:00:00 14.6 21 Oeste 37 Noroeste 0 -- -- 58
2019-04-08 14:00:00 13.8 19 Oeste 33 Noroeste 0 -- -- 64
2019-04-08 13:00:00 12.7 15 Oeste 33 Oeste 0 -- -- 74
2019-04-08 12:00:00 11.5 15 Oeste 31 Oeste 0 -- -- 80
2019-04-08 11:00:00 10 18 Sudoeste 28 Oeste 0 -- -- 92
2019-04-08 10:00:00 8.9 17 Sudoeste 25 Sudoeste 0.6 -- -- 97
2019-04-08 09:00:00 8.4 8 Sudoeste 12 Sudoeste 1 -- -- 98
2019-04-08 08:00:00 8.3 9 Sudoeste 13 Sudoeste 0.4 -- -- 98
2019-04-08 07:00:00 8 9 Sudoeste 12 Sudoeste 0.2 -- -- 98
2019-04-08 06:00:00 8 7 Sudoeste 10 Sudoeste 0 -- -- 97
2019-04-08 05:00:00 8.2 8 Sudoeste 12 Sudoeste 0 -- -- 98
2019-04-08 04:00:00 7.6 8 Sudoeste 14 Sudoeste 0 -- -- 97
2019-04-08 03:00:00 8.1 11 Sudoeste 19 Sudoeste 0 -- -- 96
2019-04-08 02:00:00 8.1 11 Sur 18 Sur 0 -- -- 95
2019-04-08 01:00:00 7.9 9 Sur 15 Sur 0 -- -- 93
2019-04-08 00:00:00 7.9 8 Sur 13 Sur 0 -- -- 92
2019-04-07 23:00:00 7.9 6 Sur 10 Sur 0 -- -- 91
2019-04-07 22:00:00 8 0 Calma 6 Oeste 0.2 -- -- 89
2019-04-07 21:00:00 8.2 4 Oeste 21 Oeste 0.2 -- -- 87
2019-04-07 20:00:00 9.6 11 Oeste 29 Noroeste 0 -- -- 74
2019-04-07 19:00:00 11 10 Oeste 35 Oeste 0 -- -- 60
2019-04-07 18:00:00 11.3 17 Oeste 32 Oeste 0 -- -- 54
2019-04-07 17:00:00 11.6 15 Oeste 35 Oeste 0 -- -- 55
2019-04-07 16:00:00 11.5 17 Oeste 31 Oeste 0 -- -- 56
2019-04-07 15:00:00 10.8 13 Oeste 31 Oeste 0 -- -- 55
2019-04-07 14:00:00 10.5 17 Oeste 30 Oeste 0 -- -- 57
2019-04-07 13:00:00 9.6 12 Oeste 26 Oeste 0 -- -- 61
2019-04-07 12:00:00 8.6 12 Oeste 29 Noroeste 0 -- -- 69
2019-04-07 11:00:00 7.4 14 Oeste 28 Oeste 0 -- -- 78
2019-04-07 10:00:00 5.3 14 Oeste 34 Oeste 0 -- -- 92
2019-04-07 09:00:00 4.7 16 Noroeste 36 Oeste 0 -- -- 94
2019-04-07 08:00:00 4 18 Oeste 35 Oeste 0 -- -- 94
2019-04-07 07:00:00 4.4 18 Oeste 36 Oeste 0 -- -- 93
2019-04-07 06:00:00 4.3 13 Oeste 34 Noroeste 0 -- -- 93
2019-04-07 05:00:00 4.7 18 Oeste 34 Oeste 0 -- -- 90
2019-04-07 04:00:00 4.5 12 Oeste 30 Oeste 0 -- -- 89
2019-04-07 03:00:00 4.7 17 Oeste 36 Oeste 0 -- -- 87
2019-04-07 02:00:00 4.7 14 Oeste 32 Oeste 0 -- -- 84
2019-04-07 01:00:00 4.6 15 Oeste 30 Oeste 0 -- -- 85
2019-04-07 00:00:00 4.7 14 Oeste 34 Oeste 0 -- -- 84
2019-04-06 23:00:00 5.2 18 Oeste 42 Oeste 0 -- -- 81
2019-04-06 22:00:00 5.5 17 Oeste 38 Oeste 0 -- -- 80
2019-04-06 21:00:00 6.2 19 Oeste 49 Oeste 0 -- -- 74
2019-04-06 20:00:00 7.5 24 Oeste 53 Oeste 0 -- -- 64
2019-04-06 19:00:00 8.9 27 Oeste 50 Oeste 0 -- -- 63
2019-04-06 18:00:00 9.5 21 Oeste 54 Oeste 0 -- -- 60
2019-04-06 17:00:00 9.4 28 Oeste 53 Oeste 0 -- -- 57
2019-04-06 16:00:00 8.8 28 Oeste 46 Oeste 0 -- -- 70
2019-04-06 15:00:00 8.6 27 Oeste 54 Oeste 0 -- -- 70
2019-04-06 14:00:00 7.2 29 Oeste 55 Oeste 0.2 -- -- 82
2019-04-06 13:00:00 5.2 21 Oeste 50 Oeste 2.4 -- -- 93
2019-04-06 12:00:00 7.2 16 Sudoeste 30 Sudoeste 0.2 -- -- 84
2019-04-06 11:00:00 5.6 14 Sudoeste 26 Sudoeste 0 -- -- 86
2019-04-06 10:00:00 4.7 11 Sur 19 Sur 0 -- -- 91
2019-04-06 09:00:00 3.5 7 Oeste 24 Oeste 0 -- -- 92
2019-04-06 08:00:00 3.3 12 Oeste 28 Oeste 0 -- -- 93
2019-04-06 07:00:00 3.1 17 Oeste 35 Oeste 0 -- -- 93
2019-04-06 06:00:00 2.8 15 Oeste 30 Oeste 0 -- -- 90
2019-04-06 05:00:00 3 15 Oeste 36 Oeste 0 -- -- 91
2019-04-06 04:00:00 3.2 18 Oeste 37 Oeste 0 -- -- 90
2019-04-06 03:00:00 3.9 12 Oeste 29 Oeste 0.2 -- -- 93
2019-04-06 02:00:00 3.5 11 Sudoeste 17 Sudoeste 0 -- -- 92
2019-04-06 01:00:00 2.1 8 Sudoeste 10 Sudoeste 0 -- -- 92
2019-04-06 00:00:00 3.4 5 Oeste 22 Oeste 0 -- -- 89
2019-04-05 23:00:00 3.8 8 Oeste 21 Oeste 0 -- -- 90
2019-04-05 22:00:00 3.6 6 Oeste 12 Oeste 0 -- -- 90
2019-04-05 21:00:00 4.8 6 Oeste 21 Oeste 0 -- -- 82
2019-04-05 20:00:00 5.9 11 Oeste 31 Oeste 0 -- -- 78
2019-04-05 19:00:00 4 15 Oeste 46 Sudoeste 0.4 -- -- 88
2019-04-05 18:00:00 6.3 17 Oeste 35 Oeste 0 -- -- 83
2019-04-05 17:00:00 4.9 24 Oeste 43 Oeste 0.4 -- -- 85
2019-04-05 16:00:00 7.9 12 Oeste 31 Sudoeste 0 -- -- 84
2019-04-05 15:00:00 6.1 9 Sudoeste 44 Oeste 3.8 -- -- 91
2019-04-05 14:00:00 7.8 14 Sur 29 Sudoeste 0.6 -- -- 90
2019-04-05 13:00:00 6.6 18 Sur 28 Sudoeste 0.8 -- -- 91
2019-04-05 12:00:00 5.8 18 Sur 28 Sur 0.4 -- -- 93
2019-04-05 11:00:00 5.6 12 Sudoeste 32 Sudoeste 1.4 -- -- 93
2019-04-05 10:00:00 5.9 19 Sur 27 Sur 0 -- -- 87
2019-04-05 09:00:00 6 13 Sur 23 Sudoeste 0 -- -- 90
2019-04-05 08:00:00 5.5 13 Sudoeste 21 Sudoeste 0.2 -- -- 91
2019-04-05 07:00:00 5.4 11 Sur 17 Sur 0.2 -- -- 89
2019-04-05 06:00:00 5.6 4 Sudoeste 8 Sudoeste 0 -- -- 86
2019-04-05 05:00:00 5.9 3 Oeste 17 Oeste 0 -- -- 82
2019-04-05 04:00:00 6.3 8 Noroeste 22 Noroeste 0 -- -- 75
2019-04-05 03:00:00 7.3 13 Oeste 33 Oeste 0 -- -- 64
2019-04-05 02:00:00 8.8 6 Sudoeste 16 Sudoeste 0 -- -- 44
2019-04-05 01:00:00 7.5 6 Sudoeste 10 Oeste 0 -- -- 55
2019-04-05 00:00:00 8.2 9 Oeste 12 Oeste 0 -- -- 49
2019-04-04 23:00:00 7 4 Oeste 8 Oeste 0 -- -- 47
2019-04-04 22:00:00 9 3 Noroeste 9 Noroeste 0 -- -- 41
2019-04-04 21:00:00 10.9 3 Noroeste 8 Noroeste 0 -- -- 38
2019-04-04 20:00:00 13.2 5 Noroeste 18 Noroeste 0 -- -- 32
2019-04-04 19:00:00 14.5 5 Oeste 20 Oeste 0 -- -- 29
2019-04-04 18:00:00 14.2 8 Sur 21 Sudoeste 0 -- -- 28
2019-04-04 17:00:00 13.9 12 Oeste 28 Oeste 0 -- -- 27
2019-04-04 16:00:00 12.9 5 Oeste 26 Oeste 0 -- -- 27
2019-04-04 15:00:00 11.7 9 Oeste 28 Sudoeste 0 -- -- 27
2019-04-04 14:00:00 10.5 12 Sudoeste 23 Sudoeste 0 -- -- 31
2019-04-04 13:00:00 9.9 4 Sudoeste 14 Oeste 0 -- -- 39
2019-04-04 12:00:00 8.6 4 Sudoeste 12 Oeste 0 -- -- 39
2019-04-04 11:00:00 7.1 3 Oeste 12 Este 0 -- -- 42
2019-04-04 10:00:00 5.5 4 Norte 10 Norte 0 -- -- 47
2019-04-04 09:00:00 3.5 2 Norte 3 Norte 0 -- -- 56
2019-04-04 08:00:00 1.8 0 Calma 6 Norte 0 -- -- 66
2019-04-04 07:00:00 2.7 0 Calma 9 Norte 0 -- -- 59
2019-04-04 06:00:00 2.2 8 Nordeste 14 Nordeste 0 -- -- 58
2019-04-04 05:00:00 3.5 9 Norte 21 Norte 0 -- -- 54
2019-04-04 04:00:00 4.4 14 Norte 21 Norte 0 -- -- 50
2019-04-04 03:00:00 4.6 10 Norte 17 Norte 0 -- -- 52
2019-04-04 02:00:00 5.8 12 Norte 17 Norte 0 -- -- 50
2019-04-04 01:00:00 6.4 10 Norte 17 Norte 0 -- -- 49
2019-04-04 00:00:00 7.2 11 Norte 20 Norte 0 -- -- 44
2019-04-03 23:00:00 8 5 Noroeste 17 Norte 0 -- -- 40
2019-04-03 22:00:00 9.4 12 Norte 25 Noroeste 0 -- -- 37
2019-04-03 21:00:00 10.7 15 Norte 33 Norte 0 -- -- 37
2019-04-03 20:00:00 11.7 24 Norte 36 Norte 0 -- -- 35
2019-04-03 19:00:00 13.3 24 Norte 38 Norte 0 -- -- 35
2019-04-03 18:00:00 14.4 27 Norte 40 Norte 0 -- -- 38
2019-04-03 17:00:00 15.6 18 Norte 36 Norte 0 -- -- 43
2019-04-03 16:00:00 16.9 17 Oeste 42 Noroeste 0 -- -- 37
2019-04-03 15:00:00 16.1 20 Oeste 40 Oeste 0 -- -- 37
2019-04-03 14:00:00 14.6 15 Noroeste 36 Oeste 0 -- -- 48
2019-04-03 13:00:00 13.6 14 Oeste 30 Oeste 0 -- -- 55
2019-04-03 12:00:00 12.5 12 Oeste 28 Noroeste 0 -- -- 62
2019-04-03 11:00:00 11.4 10 Oeste 21 Noroeste 0 -- -- 71
2019-04-03 10:00:00 9.7 3 Sudoeste 9 Sur 0 -- -- 85
2019-04-03 09:00:00 7.1 3 Sur 6 Sudoeste 0 -- -- 86
2019-04-03 08:00:00 6.4 3 Noroeste 8 Noroeste 0 -- -- 75
2019-04-03 07:00:00 6.3 4 Noroeste 8 Noroeste 0 -- -- 90
2019-04-03 06:00:00 6.3 4 Oeste 8 Oeste 0 -- -- 89
2019-04-03 05:00:00 6.7 3 Noroeste 5 Noroeste 0 -- -- 89
2019-04-03 04:00:00 6.6 0 Calma 8 Sudoeste 0 -- -- 87
2019-04-03 03:00:00 8.2 6 Oeste 9 Oeste 0 -- -- 85
2019-04-03 02:00:00 7.5 3 Noroeste 13 Sudoeste 0 -- -- 90
2019-04-03 01:00:00 8.5 10 Sudoeste 13 Sudoeste 0 -- -- 88
2019-04-03 00:00:00 9.2 6 Sur 11 Sur 0 -- -- 90
2019-04-02 23:00:00 8.6 8 Sur 12 Sudoeste 0 -- -- 90
2019-04-02 22:00:00 8.8 8 Sur 10 Sur 0 -- -- 86
2019-04-02 21:00:00 10.7 5 Sur 13 Sudoeste 0 -- -- 84
2019-04-02 20:00:00 12.8 8 Sudoeste 18 Sudoeste 0 -- -- 77
2019-04-02 19:00:00 12.3 9 Sur 34 Sudoeste 0 -- -- 77
2019-04-02 18:00:00 12.7 13 Oeste 31 Sudoeste 0.4 -- -- 77
2019-04-02 17:00:00 16.8 21 Sudoeste 39 Sudoeste 0 -- -- 50
2019-04-02 16:00:00 17.3 23 Sudoeste 34 Sudoeste 0 -- -- 54
2019-04-02 15:00:00 17 8 Sudoeste 26 Sudoeste 0 -- -- 52
2019-04-02 14:00:00 15.6 9 Sudoeste 23 Sudoeste 0 -- -- 60
2019-04-02 13:00:00 13.7 10 Oeste 21 Oeste 0 -- -- 70
2019-04-02 12:00:00 12.7 8 Oeste 18 Noroeste 0 -- -- 76
2019-04-02 11:00:00 11.3 7 Oeste 15 Sudoeste 0 -- -- 85
2019-04-02 10:00:00 9 4 Sudoeste 8 Sudoeste 0 -- -- 94
2019-04-02 09:00:00 7.3 5 Sur 6 Sur 0 -- -- 96
2019-04-02 08:00:00 5.8 3 Sudeste 7 Este 0 -- -- 95
2019-04-02 07:00:00 6.1 3 Sudeste 6 Sudeste 0 -- -- 92
2019-04-02 06:00:00 6.8 5 Sur 8 Sur 0 -- -- 93
2019-04-02 05:00:00 7.3 4 Sur 6 Sur 0 -- -- 93
2019-04-02 04:00:00 7.2 4 Sur 9 Sur 0 -- -- 94
2019-04-02 03:00:00 7.4 7 Sur 9 Sur 0 -- -- 92
2019-04-02 02:00:00 8.3 8 Sur 11 Sur 0 -- -- 91
2019-04-02 01:00:00 9.6 6 Sudeste 10 Sur 0 -- -- 88
2019-04-02 00:00:00 11 8 Sur 12 Sur 0 -- -- 83
2019-04-01 23:00:00 11.1 6 Sur 8 Sur 0 -- -- 81
2019-04-01 22:00:00 11.2 5 Sudoeste 19 Sudoeste 0 -- -- 82
2019-04-01 21:00:00 12 9 Sudoeste 11 Sudoeste 0 -- -- 79
2019-04-01 20:00:00 14.1 6 Sur 10 Sudeste 0 -- -- 68
2019-04-01 19:00:00 15.6 3 Sur 11 Sur 0 -- -- 55
2019-04-01 18:00:00 15.1 5 Sudeste 10 Sudeste 0 -- -- 58
2019-04-01 17:00:00 14.1 3 Este 12 Sudeste 0 -- -- 65
2019-04-01 16:00:00 13.7 4 Este 8 Sudeste 0 -- -- 71
2019-04-01 15:00:00 13.2 2 Sudoeste 6 Oeste 0 -- -- 71
2019-04-01 14:00:00 12.3 3 Sudeste 8 Sudeste 0 -- -- 79
2019-04-01 13:00:00 11.3 4 Sudeste 11 Este 0 -- -- 87
2019-04-01 12:00:00 10.4 9 Este 17 Este 0 -- -- 91
2019-04-01 11:00:00 9.3 9 Este 14 Este 0 -- -- 97
2019-04-01 10:00:00 8.2 10 Nordeste 13 Este 0 -- -- 98
2019-04-01 09:00:00 7.8 10 Nordeste 14 Nordeste 0 -- -- 98
2019-04-01 08:00:00 7.7 10 Nordeste 15 Nordeste 0 -- -- 97
2019-04-01 07:00:00 7.8 8 Nordeste 12 Nordeste 0 -- -- 97
2019-04-01 06:00:00 8.1 6 Nordeste 10 Este 0 -- -- 96
2019-04-01 05:00:00 8.1 8 Este 13 Este 0 -- -- 96
2019-04-01 04:00:00 8.1 7 Este 10 Este 0 -- -- 96
2019-04-01 03:00:00 8.1 8 Este 16 Este 0 -- -- 95
2019-04-01 02:00:00 8.8 7 Este 11 Este 0 -- -- 93
2019-04-01 01:00:00 8.8 5 Este 13 Este 0 -- -- 93
2019-04-01 00:00:00 8.8 10 Este 14 Sudeste 0 -- -- 93
2019-03-31 23:00:00 8.8 8 Este 13 Este 0 -- -- 93
2019-03-31 22:00:00 8.9 8 Este 13 Este 0 -- -- 94
2019-03-31 21:00:00 9.2 11 Este 14 Este 0.2 -- -- 93
2019-03-31 20:00:00 9.4 11 Nordeste 19 Nordeste 0 -- -- 92
2019-03-31 19:00:00 9.4 13 Nordeste 18 Nordeste 0 -- -- 90
2019-03-31 18:00:00 10.3 11 Este 18 Nordeste 0 -- -- 86
2019-03-31 17:00:00 10.4 4 Este 13 Este 0.4 -- -- 87
2019-03-31 16:00:00 9.5 9 Nordeste 15 Nordeste 0.6 -- -- 91
2019-03-31 15:00:00 9 11 Este 18 Este 0.4 -- -- 88
2019-03-31 14:00:00 8.9 11 Este 17 Este 0 -- -- 87
2019-03-31 13:00:00 8.4 10 Este 14 Este 0.2 -- -- 88
2019-03-31 12:00:00 7.7 8 Sudeste 21 Sudeste 1 -- -- 89
2019-03-31 11:00:00 7.2 6 Sudeste 21 Sudeste 1.6 -- -- 90
2019-03-31 10:00:00 8.2 14 Sudeste 27 Sudeste 0 -- -- 78
2019-03-31 09:00:00 7.3 15 Este 24 Este 0 -- -- 81
2019-03-31 08:00:00 7 15 Este 27 Este 0 -- -- 79
2019-03-31 07:00:00 7.5 18 Este 27 Sudeste 0 -- -- 72
2019-03-31 06:00:00 7.9 17 Sudeste 29 Sudeste 0 -- -- 72
2019-03-31 05:00:00 8.3 14 Sudeste 23 Sudeste 0 -- -- 68
2019-03-31 03:00:00 9.1 23 Sudeste 42 Este 0 -- -- 65
2019-03-31 01:00:00 9.7 21 Este 31 Este 0 -- -- 64
2019-03-31 00:00:00 10.4 20 Sudeste 33 Sudeste 0 -- -- 64
2019-03-30 23:00:00 10.3 15 Este 32 Sudeste 0 -- -- 64
2019-03-30 22:00:00 11.9 13 Sudeste 24 Sudeste 0 -- -- 55
2019-03-30 21:00:00 12.1 12 Sudeste 19 Sudeste 0 -- -- 49
2019-03-30 20:00:00 14.2 6 Sudeste 14 Sudeste 0 -- -- 42
2019-03-30 19:00:00 16.7 8 Sudeste 17 Este 0 -- -- 37
2019-03-30 18:00:00 18.4 9 Sudeste 17 Sudeste 0 -- -- 33
2019-03-30 17:00:00 18.4 8 Este 23 Este 0 -- -- 33
2019-03-30 16:00:00 18.2 15 Este 24 Este 0 -- -- 34
2019-03-30 15:00:00 17.9 6 Este 26 Sudeste 0 -- -- 36
2019-03-30 14:00:00 16.6 11 Este 28 Sudeste 0 -- -- 41
2019-03-30 13:00:00 15.4 10 Sudeste 26 Este 0 -- -- 45
2019-03-30 12:00:00 13.4 11 Sudeste 24 Sudeste 0 -- -- 51
2019-03-30 11:00:00 12.3 11 Sudeste 24 Este 0 -- -- 55
2019-03-30 10:00:00 9.8 14 Este 27 Este 0 -- -- 64
2019-03-30 09:00:00 6.8 20 Este 27 Este 0 -- -- 74
2019-03-30 08:00:00 3.8 14 Este 19 Este 0 -- -- 88
2019-03-30 07:00:00 2 13 Este 18 Este 0 -- -- 87
2019-03-30 06:00:00 2.7 12 Este 22 Este 0 -- -- 79
2019-03-30 05:00:00 4.8 17 Sudeste 25 Sudeste 0 -- -- 73
2019-03-30 04:00:00 5.2 15 Sudeste 32 Sudeste 0 -- -- 68
2019-03-30 03:00:00 6.1 20 Sudeste 36 Sudeste 0 -- -- 66
2019-03-30 02:00:00 6.7 24 Sudeste 37 Sudeste 0 -- -- 64
2019-03-30 01:00:00 7.3 26 Sudeste 40 Sudeste 0 -- -- 60
2019-03-30 00:00:00 8.1 24 Sudeste 43 Sudeste 0 -- -- 57
2019-03-29 23:00:00 9.2 25 Sudeste 41 Sudeste 0 -- -- 56
2019-03-29 22:00:00 10.3 21 Sudeste 35 Sudeste 0 -- -- 52
2019-03-29 21:00:00 11 12 Sudeste 22 Sudeste 0 -- -- 46
2019-03-29 20:00:00 12.5 13 Sudeste 23 Sudeste 0 -- -- 39
2019-03-29 19:00:00 14.4 17 Sudeste 25 Sudeste 0 -- -- 35
2019-03-29 18:00:00 15.9 15 Sudeste 36 Sudeste 0 -- -- 32
2019-03-29 17:00:00 15.9 22 Sudeste 48 Sudeste 0 -- -- 31
2019-03-29 16:00:00 17.2 18 Sudeste 35 Sudeste 0 -- -- 30
2019-03-29 15:00:00 16.8 18 Sudeste 36 Este 0 -- -- 30
2019-03-29 14:00:00 16.7 18 Sudeste 38 Sudeste 0 -- -- 30
2019-03-29 13:00:00 14.7 19 Sudeste 37 Sur 0 -- -- 32
2019-03-29 12:00:00 14.1 21 Sudeste 36 Sudeste 0 -- -- 32
2019-03-29 11:00:00 12.9 21 Sudeste 35 Este 0 -- -- 34
2019-03-29 10:00:00 11.2 21 Sudeste 35 Sudeste 0 -- -- 37
2019-03-29 09:00:00 8 16 Este 25 Este 0 -- -- 46
2019-03-29 08:00:00 4.6 14 Este 21 Este 0 -- -- 54
2019-03-29 07:00:00 2.1 12 Este 18 Este 0 -- -- 62
2019-03-29 06:00:00 3.8 10 Sudeste 24 Sudeste 0 -- -- 52
2019-03-29 05:00:00 5 17 Este 27 Este 0 -- -- 47
2019-03-29 04:00:00 6.2 18 Sudeste 30 Sudeste 0 -- -- 47
2019-03-29 03:00:00 6.5 18 Sudeste 30 Este 0 -- -- 49
2019-03-29 02:00:00 6.7 14 Sudeste 27 Sudeste 0 -- -- 44
2019-03-29 01:00:00 6.8 14 Sudeste 24 Sudeste 0 -- -- 40
2019-03-29 00:00:00 7.8 11 Sudeste 22 Sudeste 0 -- -- 37
2019-03-28 23:00:00 8.9 13 Sudeste 21 Sudeste 0 -- -- 35
2019-03-28 22:00:00 9.5 8 Sudeste 15 Sudeste 0 -- -- 32
2019-03-28 21:00:00 11.4 7 Sudeste 12 Sudeste 0 -- -- 28
2019-03-28 20:00:00 13.1 5 Sudeste 12 Sudeste 0 -- -- 26
2019-03-28 19:00:00 16.5 8 Sudeste 19 Este 0 -- -- 20
2019-03-28 18:00:00 17.6 13 Este 24 Este 0 -- -- 20
2019-03-28 17:00:00 18.2 11 Sudeste 27 Este 0 -- -- 20
2019-03-28 16:00:00 18.3 10 Este 24 Este 0 -- -- 20
2019-03-28 15:00:00 17.9 12 Este 24 Sudeste 0 -- -- 21
2019-03-28 14:00:00 17.1 8 Nordeste 28 Sudeste 0 -- -- 22
2019-03-28 13:00:00 16.4 10 Sudeste 25 Sudeste 0 -- -- 23
2019-03-28 12:00:00 15.5 11 Sudeste 24 Este 0 -- -- 22
2019-03-28 11:00:00 13.6 13 Sudeste 23 Sudeste 0 -- -- 20
2019-03-28 10:00:00 11.2 13 Sudeste 20 Este 0 -- -- 30
2019-03-28 09:00:00 7.6 14 Este 22 Este 0 -- -- 43
2019-03-28 08:00:00 3.7 13 Este 19 Este 0 -- -- 57
2019-03-28 07:00:00 2 13 Este 19 Este 0 -- -- 62
2019-03-28 06:00:00 2.8 14 Este 23 Sudeste 0 -- -- 60
2019-03-28 05:00:00 4.4 14 Sudeste 24 Sudeste 0 -- -- 55
2019-03-28 04:00:00 4 9 Sudeste 19 Sudeste 0 -- -- 56
2019-03-28 03:00:00 5.2 13 Sudeste 23 Sudeste 0 -- -- 49
2019-03-28 02:00:00 5.8 12 Sudeste 23 Sudeste 0 -- -- 43
2019-03-28 01:00:00 6.4 12 Sudeste 20 Sudeste 0 -- -- 37
2019-03-28 00:00:00 7.4 14 Este 18 Este 0 -- -- 35
2019-03-27 23:00:00 7.8 8 Sudeste 12 Sur 0 -- -- 38
2019-03-27 22:00:00 8.6 6 Sudeste 12 Sudeste 0 -- -- 41
2019-03-27 21:00:00 10.4 2 Sur 5 Sudoeste 0 -- -- 37
2019-03-27 20:00:00 12.8 4 Sudoeste 8 Sur 0 -- -- 33
2019-03-27 19:00:00 16.3 5 Sur 13 Sudeste 0 -- -- 31
2019-03-27 18:00:00 17.1 5 Sudeste 20 Este 0 -- -- 26
2019-03-27 17:00:00 17.4 9 Este 23 Este 0 -- -- 25
2019-03-27 16:00:00 17 13 Este 24 Este 0 -- -- 25
2019-03-27 15:00:00 16.3 6 Este 18 Este 0 -- -- 27
2019-03-27 14:00:00 15.4 6 Nordeste 21 Este 0 -- -- 30
2019-03-27 13:00:00 14.3 11 Este 22 Este 0 -- -- 33
2019-03-27 12:00:00 13.1 8 Este 21 Sudeste 0 -- -- 37
2019-03-27 11:00:00 11.8 13 Sudeste 23 Sudeste 0 -- -- 38
2019-03-27 10:00:00 10 14 Sudeste 25 Este 0 -- -- 46
2019-03-27 09:00:00 8.1 14 Este 21 Este 0 -- -- 58
2019-03-27 08:00:00 3.3 9 Nordeste 12 Nordeste 0 -- -- 87
2019-03-27 07:00:00 2 10 Nordeste 13 Nordeste 0 -- -- 88
2019-03-27 06:00:00 2.3 9 Nordeste 15 Este 0 -- -- 86
2019-03-27 05:00:00 4.3 9 Este 21 Sudeste 0 -- -- 79
2019-03-27 04:00:00 5.1 17 Este 23 Este 0 -- -- 78
2019-03-27 03:00:00 5.4 10 Sudeste 22 Sudeste 0 -- -- 73
2019-03-27 02:00:00 6.3 14 Sudeste 35 Este 0 -- -- 65
2019-03-27 01:00:00 7.5 15 Este 32 Sudeste 0 -- -- 54
2019-03-27 00:00:00 8.3 16 Este 30 Este 0 -- -- 50
2019-03-26 23:00:00 10.6 21 Sudeste 32 Sudeste 0 -- -- 43
2019-03-26 22:00:00 11.4 10 Sudeste 24 Sudeste 0 -- -- 39
2019-03-26 21:00:00 13.1 12 Sudeste 25 Sudeste 0 -- -- 33
2019-03-26 20:00:00 14.7 15 Sudeste 29 Sudeste 0 -- -- 31
2019-03-26 19:00:00 17.7 18 Sudeste 31 Sudeste 0 -- -- 28
2019-03-26 18:00:00 20.1 19 Sudeste 31 Este 0 -- -- 25
2019-03-26 17:00:00 20.8 21 Sudeste 37 Sudeste 0 -- -- 25
2019-03-26 16:00:00 20.9 16 Este 35 Este 0 -- -- 25
2019-03-26 15:00:00 20.7 19 Este 39 Este 0 -- -- 27
2019-03-26 14:00:00 19.8 18 Este 32 Este 0 -- -- 27
2019-03-26 13:00:00 18.8 17 Este 30 Este 0 -- -- 30
2019-03-26 12:00:00 16.2 16 Este 30 Este 0 -- -- 36
2019-03-26 11:00:00 13.6 17 Nordeste 26 Nordeste 0 -- -- 40
2019-03-26 10:00:00 10.5 19 Nordeste 28 Nordeste 0 -- -- 47
2019-03-26 09:00:00 7.8 20 Nordeste 28 Nordeste 0 -- -- 53
2019-03-26 08:00:00 4.5 15 Nordeste 23 Nordeste 0 -- -- 65
2019-03-26 07:00:00 3.3 14 Nordeste 19 Norte 0 -- -- 68
2019-03-26 06:00:00 3.3 12 Nordeste 19 Nordeste 0 -- -- 67
2019-03-26 05:00:00 4.4 15 Nordeste 28 Nordeste 0 -- -- 63
2019-03-26 04:00:00 5.4 22 Nordeste 29 Nordeste 0 -- -- 58
2019-03-26 03:00:00 6.2 21 Nordeste 37 Nordeste 0 -- -- 54
2019-03-26 02:00:00 7.3 24 Nordeste 37 Nordeste 0 -- -- 48
2019-03-26 01:00:00 8.8 27 Nordeste 40 Nordeste 0 -- -- 44
2019-03-26 00:00:00 10.1 25 Nordeste 39 Nordeste 0 -- -- 40
2019-03-25 23:00:00 11.2 23 Nordeste 30 Nordeste 0 -- -- 33
2019-03-25 22:00:00 12.1 15 Este 24 Nordeste 0 -- -- 32
2019-03-25 21:00:00 13 13 Nordeste 22 Nordeste 0 -- -- 29
2019-03-25 20:00:00 14.6 12 Nordeste 19 Nordeste 0 -- -- 28
2019-03-25 19:00:00 18.5 14 Nordeste 23 Este 0 -- -- 27
2019-03-25 18:00:00 20.2 13 Nordeste 27 Este 0 -- -- 23
2019-03-25 17:00:00 20.9 10 Este 28 Este 0 -- -- 23
2019-03-25 16:00:00 21 14 Nordeste 29 Este 0 -- -- 25
2019-03-25 15:00:00 20.5 8 Este 26 Este 0 -- -- 25
2019-03-25 14:00:00 20.2 16 Nordeste 25 Este 0 -- -- 25
2019-03-25 13:00:00 18.9 8 Norte 24 Este 0 -- -- 29
2019-03-25 12:00:00 18.1 13 Norte 21 Nordeste 0 -- -- 32
2019-03-25 11:00:00 16 17 Nordeste 24 Nordeste 0 -- -- 37
2019-03-25 10:00:00 13.5 17 Nordeste 23 Nordeste 0 -- -- 40
2019-03-25 09:00:00 11.5 14 Nordeste 20 Nordeste 0 -- -- 45
2019-03-25 08:00:00 5.8 8 Nordeste 12 Nordeste 0 -- -- 58
2019-03-25 07:00:00 4 10 Nordeste 13 Nordeste 0 -- -- 61
2019-03-25 06:00:00 5.3 10 Nordeste 16 Nordeste 0 -- -- 56
2019-03-25 05:00:00 4.3 8 Nordeste 12 Nordeste 0 -- -- 57
2019-03-25 04:00:00 5.3 10 Nordeste 15 Este 0 -- -- 56
2019-03-25 03:00:00 6.5 13 Este 20 Este 0 -- -- 51
2019-03-25 02:00:00 6.5 13 Este 18 Este 0 -- -- 50
2019-03-25 01:00:00 8.7 14 Este 20 Este 0 -- -- 44
2019-03-25 00:00:00 9.7 16 Sudeste 24 Sudeste 0 -- -- 42
2019-03-24 23:00:00 11.7 12 Sudeste 21 Sudeste 0 -- -- 37
2019-03-24 22:00:00 12.4 11 Sudeste 18 Sudeste 0 -- -- 37
2019-03-24 21:00:00 13.1 7 Sudeste 11 Sudeste 0 -- -- 37
2019-03-24 20:00:00 14.5 6 Sudeste 17 Sudeste 0 -- -- 35
2019-03-24 19:00:00 17.8 13 Sudeste 29 Sudeste 0 -- -- 30
2019-03-24 18:00:00 19.3 16 Sudeste 34 Sudeste 0 -- -- 27
2019-03-24 17:00:00 20.4 15 Sudeste 36 Este 0 -- -- 26
2019-03-24 16:00:00 20.6 22 Este 38 Este 0 -- -- 25
2019-03-24 15:00:00 20 21 Sudeste 57 Sur 0 -- -- 27
2019-03-24 14:00:00 19.8 25 Este 40 Este 0 -- -- 28
2019-03-24 13:00:00 18.5 23 Este 50 Este 0 -- -- 30
2019-03-24 12:00:00 17.7 21 Este 33 Este 0 -- -- 33
2019-03-24 11:00:00 16.3 21 Este 32 Este 0 -- -- 38
2019-03-24 10:00:00 14.7 19 Este 29 Este 0 -- -- 42
2019-03-24 09:00:00 11.2 15 Este 24 Este 0 -- -- 53
2019-03-24 08:00:00 9.4 14 Este 22 Este 0 -- -- 59
2019-03-24 07:00:00 8.6 14 Este 19 Este 0 -- -- 61
2019-03-24 06:00:00 8.4 13 Este 18 Este 0 -- -- 63
2019-03-24 05:00:00 8.2 12 Este 17 Nordeste 0 -- -- 64
2019-03-24 04:00:00 8.9 14 Este 18 Este 0 -- -- 63
2019-03-24 03:00:00 9.1 13 Este 21 Este 0 -- -- 64
2019-03-24 02:00:00 9.1 15 Este 20 Este 0 -- -- 64
2019-03-24 01:00:00 9.8 12 Este 22 Este 0 -- -- 59
2019-03-24 00:00:00 10.2 9 Este 16 Este 0 -- -- 57
2019-03-23 23:00:00 11 9 Este 18 Sudeste 0 -- -- 52
2019-03-23 22:00:00 9.9 9 Sudeste 13 Sudeste 0 -- -- 55
2019-03-23 21:00:00 12.2 8 Sudeste 15 Sudeste 0 -- -- 49
2019-03-23 20:00:00 13.9 9 Sudeste 23 Sudeste 0 -- -- 46
2019-03-23 19:00:00 15.9 18 Sudeste 31 Sudeste 0 -- -- 41
2019-03-23 18:00:00 17.1 19 Sudeste 34 Sudeste 0 -- -- 37
2019-03-23 17:00:00 17.6 17 Sudeste 33 Este 0 -- -- 35
2019-03-23 16:00:00 18.1 21 Este 35 Este 0 -- -- 33
2019-03-23 15:00:00 17.8 19 Sudeste 44 Este 0 -- -- 34
2019-03-23 14:00:00 18.4 22 Sudeste 35 Sudeste 0 -- -- 32
2019-03-23 13:00:00 18 21 Este 32 Este 0 -- -- 35
2019-03-23 12:00:00 15.9 15 Este 27 Este 0 -- -- 39
2019-03-23 11:00:00 15.1 19 Nordeste 29 Nordeste 0 -- -- 43
2019-03-23 10:00:00 12.7 17 Nordeste 22 Nordeste 0 -- -- 50
2019-03-23 09:00:00 9.3 8 Nordeste 11 Nordeste 0 -- -- 63
2019-03-23 08:00:00 4.6 8 Nordeste 12 Nordeste 0 -- -- 78
2019-03-23 07:00:00 3.4 9 Nordeste 14 Nordeste 0 -- -- 77
2019-03-23 06:00:00 3.7 10 Nordeste 13 Nordeste 0 -- -- 76
2019-03-23 05:00:00 4.5 10 Nordeste 13 Nordeste 0 -- -- 74
2019-03-23 04:00:00 5.2 7 Este 15 Sudeste 0 -- -- 68
2019-03-23 03:00:00 7 10 Sudeste 19 Sudeste 0 -- -- 64
2019-03-23 02:00:00 7 9 Sudeste 18 Este 0 -- -- 64
2019-03-23 01:00:00 8.3 11 Este 23 Sudeste 0 -- -- 60
2019-03-23 00:00:00 9 13 Sudeste 21 Sur 0 -- -- 59
2019-03-22 23:00:00 9.8 14 Sudeste 23 Sudeste 0 -- -- 56
2019-03-22 22:00:00 10.4 11 Sudeste 22 Sudeste 0 -- -- 53
2019-03-22 21:00:00 11.7 11 Sudeste 22 Sudeste 0 -- -- 45
2019-03-22 20:00:00 13.8 12 Sudeste 19 Sudeste 0 -- -- 39
2019-03-22 19:00:00 15.9 8 Este 15 Nordeste 0 -- -- 33
2019-03-22 18:00:00 16.7 11 Norte 21 Nordeste 0 -- -- 32
2019-03-22 17:00:00 17.2 6 Nordeste 22 Nordeste 0 -- -- 31
2019-03-22 16:00:00 16.9 5 Nordeste 28 Este 0 -- -- 32
2019-03-22 15:00:00 16.7 7 Este 30 Nordeste 0 -- -- 32
2019-03-22 14:00:00 15.5 11 Este 33 Este 0 -- -- 33
2019-03-22 13:00:00 14.1 12 Este 26 Este 0 -- -- 34
2019-03-22 12:00:00 12.9 15 Nordeste 27 Nordeste 0 -- -- 40
2019-03-22 11:00:00 10.9 15 Nordeste 24 Nordeste 0 -- -- 44
2019-03-22 10:00:00 9.1 16 Nordeste 22 Nordeste 0 -- -- 48
2019-03-22 09:00:00 6.6 13 Nordeste 16 Nordeste 0 -- -- 57
2019-03-22 08:00:00 1.7 9 Nordeste 11 Nordeste 0 -- -- 76
2019-03-22 07:00:00 -0.1 8 Este 12 Nordeste 0 -- -- 77
2019-03-22 06:00:00 0.5 8 Nordeste 14 Nordeste 0 -- -- 76
2019-03-22 05:00:00 1.4 8 Sudeste 12 Sudeste 0 -- -- 66
2019-03-22 04:00:00 2.3 8 Sudeste 14 Sudeste 0 -- -- 63
2019-03-22 03:00:00 3 8 Sudeste 17 Sudeste 0 -- -- 59
2019-03-22 02:00:00 3.6 9 Sudeste 19 Sudeste 0 -- -- 56
2019-03-22 01:00:00 4.8 12 Sudeste 22 Sudeste 0 -- -- 51
2019-03-22 00:00:00 5.7 11 Sudeste 21 Sudeste 0 -- -- 48
2019-03-21 23:00:00 6.5 10 Sudeste 16 Sudeste 0 -- -- 44
2019-03-21 22:00:00 6.5 9 Sudeste 16 Sudeste 0 -- -- 46
2019-03-21 21:00:00 7.9 9 Sudeste 18 Sudeste 0 -- -- 43
2019-03-21 20:00:00 10.1 0 Calma 3 Nordeste 0 -- -- 39
2019-03-21 19:00:00 13 2 Este 14 Este 0 -- -- 33
2019-03-21 18:00:00 14.1 4 Norte 13 Sur 0 -- -- 32
2019-03-21 17:00:00 14.4 5 Sudeste 25 Nordeste 0 -- -- 31
2019-03-21 16:00:00 15 6 Sur 26 Este 0 -- -- 30
2019-03-21 15:00:00 14.3 12 Este 27 Nordeste 0 -- -- 31
2019-03-21 14:00:00 13.4 12 Nordeste 27 Este 0 -- -- 36
2019-03-21 13:00:00 12.4 9 Sudeste 18 Este 0 -- -- 40
2019-03-21 12:00:00 11.1 7 Este 15 Este 0 -- -- 44
2019-03-21 11:00:00 10 10 Sudeste 19 Este 0 -- -- 45
2019-03-21 10:00:00 8 11 Este 20 Sudeste 0 -- -- 55
2019-03-21 09:00:00 5.8 9 Nordeste 12 Nordeste 0 -- -- 68
2019-03-21 08:00:00 2 7 Nordeste 13 Nordeste 0 -- -- 79
2019-03-21 07:00:00 0.4 8 Nordeste 15 Nordeste 0 -- -- 76
2019-03-21 06:00:00 2.1 9 Este 19 Este 0 -- -- 66
2019-03-21 05:00:00 1 12 Este 15 Este 0 -- -- 73
2019-03-21 04:00:00 2.6 12 Este 18 Sudeste 0 -- -- 70
2019-03-21 03:00:00 4.2 12 Sudeste 21 Sudeste 0 -- -- 63
2019-03-21 02:00:00 5.3 13 Sudeste 28 Sudeste 0 -- -- 61
2019-03-21 01:00:00 6.2 18 Sudeste 32 Sudeste 0 -- -- 62
2019-03-21 00:00:00 5.3 16 Este 23 Este 0 -- -- 48